Maersk Drummond — A8JF3 — position and weather

sailwx.info

Track history (hours):
 
Tides and Currents Weather Stations Pressure Air Temp Water Temp Dewpoint Dewpoint Depression Visibility Wind Speed Wind Dir Waves Ship Positions

Maersk Drummond

Last reported at 2015-Mar-26 15:32 UTC. Time now 2015-Apr-02 03:09 UTC.
Position N 26°11' W 079°17'.

Length 294 m; draft 10.7 m.

Type: Ship (hazmat cat A). MMSI: 636091082.

Date/timePositionNaut miles runAvg speedWind from/ knotsBaromVisibWave heightAir tempDewpointWater temp
2015-Mar-26 15:32N 26°11' W 079°17'1616.6
2015-Mar-26 14:33N 25°55' W 079°23'  
2015-Mar-24 08:33N 29°52' W 089°57'8 7.0
2015-Mar-24 07:28N 29°57' W 090°03'4 0.5
2015-Mar-23 23:30N 29°55' W 090°07'5 5.4
2015-Mar-23 22:33N 29°57' W 090°01'8 7.2
2015-Mar-23 21:28N 29°52' W 089°55'251 9.7
2015-Mar-22 19:28N 29°20' W 094°42'1312.7
2015-Mar-22 18:27N 29°30' W 094°52'1111.9
2015-Mar-22 17:34N 29°39' W 094°58'3 0.6
2015-Mar-22 12:32N 29°41' W 095°00'0 0.0
2015-Mar-22 11:32N 29°41' W 095°00'0 0.0
2015-Mar-22 10:32N 29°41' W 095°00'0 0.0
2015-Mar-22 09:32N 29°41' W 095°00'0 0.0
2015-Mar-22 08:32N 29°41' W 095°00'0 0.0
2015-Mar-22 07:32N 29°41' W 095°00'0 0.0
2015-Mar-22 06:32N 29°41' W 095°00'0 0.0
2015-Mar-22 05:32N 29°41' W 095°00'0 0.0
2015-Mar-22 04:33N 29°41' W 095°00'0 0.0
2015-Mar-22 03:33N 29°41' W 095°00'0 0.0
2015-Mar-22 02:33N 29°41' W 095°00'0 0.0
2015-Mar-22 01:34N 29°41' W 095°00'0 0.0
2015-Mar-22 00:34N 29°41' W 095°00'0 0.0
2015-Mar-21 23:33N 29°41' W 095°00'0 0.0
2015-Mar-21 22:33N 29°41' W 095°00'0 0.0
2015-Mar-21 21:31N 29°41' W 095°00'0 0.0
2015-Mar-21 20:31N 29°41' W 095°00'1 0.7
2015-Mar-21 19:33N 29°41' W 094°60'4 4.4
2015-Mar-21 18:33N 29°37' W 094°57'1110.8
2015-Mar-21 17:33N 29°28' W 094°51'  
Track history (hours):
 
Tides and Currents Weather Stations Pressure Air Temp Water Temp Dewpoint Dewpoint Depression Visibility Wind Speed Wind Dir Waves Ship Positions

Maersk Drummond

Last reported at 2015-Mar-26 15:32 UTC. Time now 2015-Apr-02 03:09 UTC.
Position N 26°11' W 079°17'.

Length 294 m; draft 10.7 m.

Type: Ship (hazmat cat A). MMSI: 636091082.

Date/timePositionNaut miles runAvg speedWind from/ knotsBaromVisibWave heightAir tempDewpointWater temp
2015-Mar-26 15:32N 26°11' W 079°17'1616.6
2015-Mar-26 14:33N 25°55' W 079°23'  
2015-Mar-24 08:33N 29°52' W 089°57'8 7.0
2015-Mar-24 07:28N 29°57' W 090°03'4 0.5
2015-Mar-23 23:30N 29°55' W 090°07'5 5.4
2015-Mar-23 22:33N 29°57' W 090°01'8 7.2
2015-Mar-23 21:28N 29°52' W 089°55'251 9.7
2015-Mar-22 19:28N 29°20' W 094°42'1312.7
2015-Mar-22 18:27N 29°30' W 094°52'1111.9
2015-Mar-22 17:34N 29°39' W 094°58'3 0.6
2015-Mar-22 12:32N 29°41' W 095°00'0 0.0
2015-Mar-22 11:32N 29°41' W 095°00'0 0.0
2015-Mar-22 10:32N 29°41' W 095°00'0 0.0
2015-Mar-22 09:32N 29°41' W 095°00'0 0.0
2015-Mar-22 08:32N 29°41' W 095°00'0 0.0
2015-Mar-22 07:32N 29°41' W 095°00'0 0.0
2015-Mar-22 06:32N 29°41' W 095°00'0 0.0
2015-Mar-22 05:32N 29°41' W 095°00'0 0.0
2015-Mar-22 04:33N 29°41' W 095°00'0 0.0
2015-Mar-22 03:33N 29°41' W 095°00'0 0.0
2015-Mar-22 02:33N 29°41' W 095°00'0 0.0
2015-Mar-22 01:34N 29°41' W 095°00'0 0.0
2015-Mar-22 00:34N 29°41' W 095°00'0 0.0
2015-Mar-21 23:33N 29°41' W 095°00'0 0.0
2015-Mar-21 22:33N 29°41' W 095°00'0 0.0
2015-Mar-21 21:31N 29°41' W 095°00'0 0.0
2015-Mar-21 20:31N 29°41' W 095°00'1 0.7
2015-Mar-21 19:33N 29°41' W 094°60'4 4.4
2015-Mar-21 18:33N 29°37' W 094°57'1110.8
2015-Mar-21 17:33N 29°28' W 094°51'  

Dump ship's entire track history